createdAt,value
2022-10-15T00:01:37.327Z,17.50
2022-10-15T00:04:03.878Z,17.50
2022-10-15T00:06:30.354Z,17.50
2022-10-15T00:08:56.837Z,17.50
2022-10-15T00:11:23.301Z,17.50
2022-10-15T00:13:49.772Z,17.50
2022-10-15T00:16:16.248Z,17.50
2022-10-15T00:18:43.097Z,17.50
2022-10-15T00:21:09.613Z,17.50
2022-10-15T00:23:36.125Z,17.50
2022-10-15T00:26:02.608Z,17.60
2022-10-15T00:28:31.948Z,17.50
2022-10-15T00:31:00.911Z,17.50
2022-10-15T00:33:27.443Z,17.50
2022-10-15T00:35:56.074Z,17.50
2022-10-15T00:38:24.709Z,17.50
2022-10-15T00:40:51.184Z,17.50
2022-10-15T00:43:17.662Z,17.50
2022-10-15T00:45:44.131Z,17.50
2022-10-15T00:48:10.634Z,17.50
2022-10-15T00:50:37.103Z,17.50
2022-10-15T00:53:03.650Z,17.50
2022-10-15T00:55:30.185Z,17.50
2022-10-15T00:57:56.638Z,17.50
2022-10-15T01:00:23.114Z,17.50
2022-10-15T01:02:49.586Z,17.50
2022-10-15T01:05:16.145Z,17.60
2022-10-15T01:07:42.622Z,17.50
2022-10-15T01:10:09.097Z,17.50
2022-10-15T01:12:35.579Z,17.50
2022-10-15T01:15:02.086Z,17.50
2022-10-15T01:17:28.550Z,17.50
2022-10-15T01:19:55.037Z,17.50
2022-10-15T01:22:21.529Z,17.50
2022-10-15T01:24:48.005Z,17.50
2022-10-15T01:27:14.563Z,17.50
2022-10-15T01:29:41.034Z,17.50
2022-10-15T01:32:07.532Z,17.50
2022-10-15T01:34:34.023Z,17.50
2022-10-15T01:37:00.523Z,17.50
2022-10-15T01:39:27.028Z,17.60
2022-10-15T01:41:53.496Z,17.60
2022-10-15T01:44:19.984Z,17.50
2022-10-15T01:46:46.532Z,17.50
2022-10-15T01:49:13.015Z,17.50
2022-10-15T01:51:39.495Z,17.50
2022-10-15T01:54:05.960Z,17.50
2022-10-15T01:56:32.435Z,17.50
2022-10-15T01:58:58.897Z,17.60
2022-10-15T02:01:25.497Z,17.50
2022-10-15T02:03:52.040Z,17.60
2022-10-15T02:06:18.566Z,17.60
2022-10-15T02:08:45.032Z,17.60
2022-10-15T02:11:11.499Z,17.60
2022-10-15T02:13:37.975Z,17.40
2022-10-15T02:16:04.456Z,17.60
2022-10-15T02:18:30.927Z,17.50
2022-10-15T02:20:57.407Z,17.60
2022-10-15T02:23:23.868Z,17.50
2022-10-15T02:25:50.345Z,17.60
2022-10-15T02:28:16.892Z,17.50
2022-10-15T02:30:43.388Z,17.60
2022-10-15T02:33:09.944Z,17.60
2022-10-15T02:35:36.446Z,17.60
2022-10-15T02:38:02.987Z,17.50
2022-10-15T02:40:31.652Z,17.50
2022-10-15T02:43:00.532Z,17.60
2022-10-15T02:45:27.039Z,17.60
2022-10-15T02:47:53.520Z,17.60
2022-10-15T02:50:19.976Z,17.50
2022-10-15T02:52:46.468Z,17.50
2022-10-15T02:55:12.939Z,17.60
2022-10-15T02:57:39.411Z,17.50
2022-10-15T03:00:06.203Z,17.40
2022-10-15T03:02:32.662Z,17.50
2022-10-15T03:04:59.136Z,17.50
2022-10-15T03:07:25.887Z,17.60
2022-10-15T03:09:52.548Z,17.60
2022-10-15T03:12:19.005Z,17.60
2022-10-15T03:14:45.478Z,17.60
2022-10-15T03:19:52.284Z,17.60
2022-10-15T03:22:18.750Z,17.50
2022-10-15T03:24:49.206Z,17.60
2022-10-15T03:27:15.687Z,17.60
2022-10-15T03:29:42.171Z,17.60
2022-10-15T03:32:08.650Z,17.60
2022-10-15T03:34:35.111Z,17.50
2022-10-15T03:37:01.605Z,17.50
2022-10-15T03:39:28.086Z,17.60
2022-10-15T03:41:54.581Z,17.60
2022-10-15T03:44:21.068Z,17.60
2022-10-15T03:46:47.539Z,17.60
2022-10-15T03:49:14.013Z,17.60
2022-10-15T03:51:40.509Z,17.50
2022-10-15T03:54:06.964Z,17.60
2022-10-15T03:56:33.428Z,17.50
2022-10-15T03:58:59.897Z,17.50
2022-10-15T04:01:26.449Z,17.60
2022-10-15T04:03:52.948Z,17.50
2022-10-15T04:06:19.426Z,17.50
2022-10-15T04:08:45.913Z,17.50
2022-10-15T04:11:12.433Z,17.60
2022-10-15T04:13:38.895Z,17.60
2022-10-15T04:16:05.399Z,17.60
2022-10-15T04:18:31.873Z,17.40
2022-10-15T04:20:58.369Z,17.60
2022-10-15T04:23:24.870Z,17.60
2022-10-15T04:25:51.316Z,17.60
2022-10-15T04:28:17.816Z,17.60
2022-10-15T04:30:44.303Z,17.60
2022-10-15T04:33:10.750Z,17.50
2022-10-15T04:35:37.225Z,17.50
2022-10-15T04:38:03.751Z,17.40
2022-10-15T04:40:31.230Z,17.60
2022-10-15T04:42:57.700Z,17.60
2022-10-15T04:47:55.526Z,17.50
2022-10-15T04:50:21.993Z,17.60
2022-10-15T04:52:48.456Z,17.60
2022-10-15T04:55:14.934Z,17.50
2022-10-15T04:57:41.426Z,17.50
2022-10-15T05:00:07.905Z,17.50
2022-10-15T05:02:34.440Z,17.50
2022-10-15T05:05:01.016Z,17.50
2022-10-15T05:07:27.620Z,17.60
2022-10-15T05:09:54.132Z,17.50
2022-10-15T05:12:20.602Z,17.60
2022-10-15T05:14:54.501Z,17.50
2022-10-15T05:17:21.243Z,17.50
2022-10-15T05:19:48.273Z,17.50
2022-10-15T05:22:14.752Z,17.50
2022-10-15T05:24:41.222Z,17.50
2022-10-15T05:27:07.699Z,17.50
2022-10-15T05:29:34.200Z,17.50
2022-10-15T05:32:00.672Z,17.50
2022-10-15T05:34:27.185Z,17.50
2022-10-15T05:36:53.687Z,17.60
2022-10-15T05:39:20.170Z,17.50
2022-10-15T05:41:46.708Z,17.50
2022-10-15T05:44:13.183Z,17.50
2022-10-15T05:46:39.661Z,17.50
2022-10-15T05:49:06.133Z,17.50
2022-10-15T05:51:32.613Z,17.60
2022-10-15T05:53:59.092Z,17.60
2022-10-15T05:56:25.582Z,17.60
2022-10-15T05:58:52.055Z,17.60
2022-10-15T06:01:18.591Z,17.60
2022-10-15T06:03:45.056Z,17.60
2022-10-15T06:06:11.517Z,17.60
2022-10-15T06:08:38.006Z,17.60
2022-10-15T06:11:08.533Z,17.60
2022-10-15T06:13:36.329Z,17.60
2022-10-15T06:16:02.801Z,17.50
2022-10-15T06:18:29.289Z,17.50
2022-10-15T06:20:55.769Z,17.50
2022-10-15T06:23:22.235Z,17.50
2022-10-15T06:25:48.709Z,17.50
2022-10-15T06:28:20.192Z,17.50
2022-10-15T06:30:46.716Z,17.50
2022-10-15T06:33:13.213Z,17.50
2022-10-15T06:35:39.702Z,17.60
2022-10-15T06:38:06.166Z,17.60
2022-10-15T06:40:32.669Z,17.50
2022-10-15T06:42:59.213Z,17.50
2022-10-15T06:45:25.713Z,17.50
2022-10-15T06:47:52.196Z,17.40
2022-10-15T06:50:18.697Z,17.50
2022-10-15T06:52:45.176Z,17.50
2022-10-15T06:55:11.670Z,17.50
2022-10-15T06:57:38.146Z,17.50
2022-10-15T07:00:04.621Z,17.50
2022-10-15T07:02:31.101Z,17.50
2022-10-15T07:04:57.613Z,17.50
2022-10-15T07:07:24.093Z,17.40
2022-10-15T07:09:50.578Z,17.50
2022-10-15T07:12:17.038Z,17.50
2022-10-15T07:14:43.498Z,17.50
2022-10-15T07:17:09.990Z,17.50
2022-10-15T07:19:36.467Z,17.50
2022-10-15T07:22:02.948Z,17.50
2022-10-15T07:24:29.424Z,17.50
2022-10-15T07:26:55.914Z,17.50
2022-10-15T07:29:22.394Z,17.60
2022-10-15T07:31:48.861Z,17.60
2022-10-15T07:34:15.333Z,17.50
2022-10-15T07:36:41.869Z,17.50
2022-10-15T07:39:08.369Z,17.50
2022-10-15T07:41:34.850Z,17.50
2022-10-15T07:44:01.329Z,17.50
2022-10-15T07:46:27.811Z,17.50
2022-10-15T07:48:54.279Z,17.50
2022-10-15T07:51:20.821Z,17.50
2022-10-15T07:53:47.300Z,17.60
2022-10-15T07:56:13.784Z,17.60
2022-10-15T07:58:40.264Z,17.60
2022-10-15T08:01:06.735Z,17.50
2022-10-15T08:03:36.276Z,17.50
2022-10-15T08:06:02.738Z,17.50
2022-10-15T08:08:29.211Z,17.50
2022-10-15T08:10:55.682Z,17.60
2022-10-15T08:13:22.162Z,17.60
2022-10-15T08:15:48.688Z,17.50
2022-10-15T08:18:15.150Z,17.60
2022-10-15T08:20:42.380Z,17.60
2022-10-15T08:23:08.861Z,17.50
2022-10-15T08:25:35.348Z,17.50
2022-10-15T08:28:01.843Z,17.50
2022-10-15T08:30:28.390Z,17.60
2022-10-15T08:32:54.849Z,17.60
2022-10-15T08:35:21.340Z,17.60
2022-10-15T08:37:47.810Z,17.60
2022-10-15T08:40:14.333Z,17.60
2022-10-15T08:42:40.801Z,17.70
2022-10-15T08:45:07.317Z,17.60
2022-10-15T08:47:33.817Z,17.60
2022-10-15T08:50:00.328Z,17.70
2022-10-15T08:52:26.804Z,17.60
2022-10-15T08:54:53.269Z,17.60
2022-10-15T08:57:19.735Z,17.70
2022-10-15T08:59:46.246Z,17.70
2022-10-15T09:02:12.721Z,17.70
2022-10-15T09:04:39.210Z,17.70
2022-10-15T09:07:05.684Z,17.70
2022-10-15T09:09:32.166Z,17.70
2022-10-15T09:11:59.446Z,17.70
2022-10-15T09:14:25.915Z,17.70
2022-10-15T09:16:52.409Z,17.80
2022-10-15T09:19:18.885Z,17.80
2022-10-15T09:21:45.343Z,17.80
2022-10-15T09:24:11.818Z,17.80
2022-10-15T09:26:38.290Z,17.80
2022-10-15T09:29:04.801Z,17.80
2022-10-15T09:31:31.328Z,17.80
2022-10-15T09:33:57.809Z,17.80
2022-10-15T09:36:24.678Z,17.80
2022-10-15T09:38:51.148Z,17.80
2022-10-15T09:41:17.620Z,17.70
2022-10-15T09:43:44.191Z,17.80
2022-10-15T09:46:10.648Z,17.80
2022-10-15T09:48:37.104Z,17.80
2022-10-15T09:51:03.582Z,17.80
2022-10-15T09:53:30.039Z,17.80
2022-10-15T09:55:56.527Z,17.80
2022-10-15T09:58:23.017Z,17.80
2022-10-15T10:00:49.497Z,17.90
2022-10-15T10:03:16.019Z,17.80
2022-10-15T10:05:42.602Z,17.80
2022-10-15T10:08:09.140Z,17.80
2022-10-15T10:10:35.727Z,17.80
2022-10-15T10:13:02.195Z,17.90
2022-10-15T10:15:28.680Z,17.90
2022-10-15T10:17:57.039Z,17.90
2022-10-15T10:20:23.512Z,17.90
2022-10-15T10:22:51.549Z,17.70
2022-10-15T10:25:18.477Z,17.80
2022-10-15T10:27:45.099Z,17.80
2022-10-15T10:30:11.586Z,17.80
2022-10-15T10:32:38.084Z,17.80
2022-10-15T10:35:04.872Z,17.80
2022-10-15T10:37:31.357Z,17.80
2022-10-15T10:39:57.842Z,17.80
2022-10-15T10:42:24.321Z,17.80
2022-10-15T10:44:50.785Z,17.80
2022-10-15T10:47:17.265Z,17.80
2022-10-15T10:49:43.940Z,17.80
2022-10-15T10:52:10.424Z,17.80
2022-10-15T10:54:36.904Z,17.80
2022-10-15T10:57:03.389Z,17.90
2022-10-15T10:59:29.867Z,17.90
2022-10-15T11:01:56.316Z,17.80
2022-10-15T11:04:22.804Z,17.80
2022-10-15T11:06:49.299Z,17.80
2022-10-15T11:09:15.778Z,17.90
2022-10-15T11:11:42.243Z,17.90
2022-10-15T11:14:08.709Z,17.80
2022-10-15T11:16:35.188Z,17.90
2022-10-15T11:19:06.250Z,17.80
2022-10-15T11:21:40.244Z,17.80
2022-10-15T11:24:06.717Z,17.90
2022-10-15T11:26:41.635Z,17.80
2022-10-15T11:29:18.460Z,17.90
2022-10-15T11:31:55.351Z,17.90
2022-10-15T11:34:31.508Z,17.90
2022-10-15T11:36:58.008Z,17.80
2022-10-15T11:39:24.484Z,17.80
2022-10-15T11:41:50.955Z,17.80
2022-10-15T11:44:17.427Z,17.90
2022-10-15T11:46:46.543Z,17.90
2022-10-15T11:49:13.382Z,17.90
2022-10-15T11:51:39.866Z,17.90
2022-10-15T11:54:06.344Z,17.90
2022-10-15T11:56:35.029Z,17.80
2022-10-15T11:59:04.549Z,17.90
2022-10-15T12:01:31.032Z,17.90
2022-10-15T12:03:57.622Z,17.90
2022-10-15T12:06:24.119Z,17.80
2022-10-15T12:08:50.593Z,17.80
2022-10-15T12:11:17.060Z,17.90
2022-10-15T12:13:43.534Z,17.90
2022-10-15T12:16:10.026Z,17.90
2022-10-15T12:18:36.476Z,17.90
2022-10-15T12:21:02.927Z,17.90
2022-10-15T12:23:29.392Z,17.90
2022-10-15T12:25:55.869Z,17.90
2022-10-15T12:28:22.407Z,17.90
2022-10-15T12:30:48.899Z,17.90
2022-10-15T12:33:15.353Z,17.90
2022-10-15T12:35:41.821Z,17.90
2022-10-15T12:38:08.301Z,17.90
2022-10-15T12:40:34.780Z,17.90
2022-10-15T12:43:01.255Z,17.90
2022-10-15T12:45:27.755Z,17.90
2022-10-15T12:47:54.245Z,17.90
2022-10-15T12:50:20.760Z,18.00
2022-10-15T12:52:47.237Z,17.90
2022-10-15T12:55:13.724Z,17.90
2022-10-15T12:57:40.200Z,17.90
2022-10-15T13:00:06.705Z,18.00
2022-10-15T13:02:33.223Z,18.00
2022-10-15T13:04:59.728Z,17.90
2022-10-15T13:07:26.516Z,18.00
2022-10-15T13:09:53.164Z,18.00
2022-10-15T13:12:22.083Z,18.00
2022-10-15T13:14:49.021Z,18.00
2022-10-15T13:17:15.507Z,18.00
2022-10-15T13:19:42.000Z,17.90
2022-10-15T13:22:08.447Z,17.90
2022-10-15T13:24:34.953Z,18.00
2022-10-15T13:27:01.410Z,18.00
2022-10-15T13:32:08.235Z,18.00
2022-10-15T13:34:34.715Z,18.00
2022-10-15T13:37:01.181Z,18.00
2022-10-15T13:39:27.683Z,18.00
2022-10-15T13:41:54.227Z,18.00
2022-10-15T13:44:20.696Z,18.00
2022-10-15T13:46:49.485Z,18.00
2022-10-15T13:49:15.966Z,18.00
2022-10-15T13:51:42.435Z,18.00
2022-10-15T13:54:08.908Z,17.90
2022-10-15T13:56:35.379Z,18.10
2022-10-15T13:59:01.838Z,18.10
2022-10-15T14:01:28.332Z,18.10
2022-10-15T14:03:57.301Z,18.10
2022-10-15T14:06:23.806Z,18.00
2022-10-15T14:08:50.282Z,18.10
2022-10-15T14:11:16.769Z,18.10
2022-10-15T14:13:43.233Z,18.10
2022-10-15T14:16:09.750Z,18.10
2022-10-15T14:18:36.529Z,18.10
2022-10-15T14:21:10.366Z,18.10
2022-10-15T14:23:36.837Z,18.10
2022-10-15T14:26:03.319Z,18.10
2022-10-15T14:28:29.810Z,18.10
2022-10-15T14:30:56.367Z,18.10
2022-10-15T14:33:22.821Z,18.10
2022-10-15T14:35:49.305Z,18.10
2022-10-15T14:38:15.766Z,18.10
2022-10-15T14:40:42.260Z,18.10
2022-10-15T14:43:08.733Z,18.10
2022-10-15T14:45:35.212Z,18.10
2022-10-15T14:48:01.737Z,18.00
2022-10-15T14:50:28.211Z,18.10
2022-10-15T14:52:54.703Z,18.10
2022-10-15T14:55:21.195Z,18.10
2022-10-15T14:57:48.163Z,18.10
2022-10-15T15:00:14.627Z,18.10
2022-10-15T15:02:41.120Z,18.10
2022-10-15T15:05:07.643Z,18.10
2022-10-15T15:07:34.108Z,18.10
2022-10-15T15:10:00.574Z,18.10
2022-10-15T15:12:27.921Z,18.10
2022-10-15T15:14:57.551Z,18.10
2022-10-15T15:17:24.044Z,18.10
2022-10-15T15:19:50.574Z,18.10
2022-10-15T15:22:17.103Z,18.10
2022-10-15T15:24:43.573Z,18.10
2022-10-15T15:27:10.038Z,18.10
2022-10-15T15:29:36.506Z,18.10
2022-10-15T15:32:03.016Z,18.10
2022-10-15T15:34:29.470Z,18.10
2022-10-15T15:36:55.995Z,18.10
2022-10-15T15:39:22.482Z,18.10
2022-10-15T15:41:48.962Z,18.10
2022-10-15T15:44:15.434Z,18.10
2022-10-15T15:46:41.901Z,18.10
2022-10-15T15:49:10.435Z,18.10
2022-10-15T15:51:36.929Z,18.10
2022-10-15T15:54:03.402Z,18.10
2022-10-15T15:56:29.885Z,18.20
2022-10-15T15:58:56.376Z,18.10
2022-10-15T16:01:22.978Z,18.20
2022-10-15T16:03:49.458Z,18.10
2022-10-15T16:06:15.943Z,18.10
2022-10-15T16:08:42.414Z,18.10
2022-10-15T16:11:08.887Z,18.10
2022-10-15T16:13:35.378Z,18.10
2022-10-15T16:16:01.851Z,18.10
2022-10-15T16:18:28.334Z,18.10
2022-10-15T16:20:54.805Z,18.10
2022-10-15T16:23:21.281Z,18.10
2022-10-15T16:25:47.761Z,18.10
2022-10-15T16:28:14.247Z,18.10
2022-10-15T16:30:40.709Z,18.10
2022-10-15T16:35:38.610Z,18.10
2022-10-15T16:38:05.097Z,18.10
2022-10-15T16:40:31.556Z,18.10
2022-10-15T16:42:58.080Z,18.10
2022-10-15T16:45:24.565Z,18.20
2022-10-15T16:47:51.052Z,18.10
2022-10-15T16:50:17.532Z,18.10
2022-10-15T16:52:44.304Z,18.10
2022-10-15T16:55:10.780Z,18.10
2022-10-15T16:57:37.247Z,18.10
2022-10-15T17:00:03.723Z,18.20
2022-10-15T17:02:30.208Z,18.10
2022-10-15T17:04:56.692Z,18.10
2022-10-15T17:07:23.501Z,18.20
2022-10-15T17:12:21.509Z,18.20
2022-10-15T17:14:47.975Z,18.10
2022-10-15T17:17:14.449Z,18.00
2022-10-15T17:19:40.929Z,18.10
2022-10-15T17:22:09.468Z,18.20
2022-10-15T17:24:35.927Z,18.10
2022-10-15T17:27:02.410Z,18.20
2022-10-15T17:29:32.457Z,18.10
2022-10-15T17:32:00.080Z,18.20
2022-10-15T17:34:26.552Z,18.20
2022-10-15T17:36:53.026Z,18.20
2022-10-15T17:39:19.508Z,18.10
2022-10-15T17:41:45.982Z,18.10
2022-10-15T17:44:12.436Z,18.20
2022-10-15T17:46:38.997Z,18.20
2022-10-15T17:49:05.499Z,18.10
2022-10-15T17:51:31.969Z,18.20
2022-10-15T17:53:58.476Z,18.20
2022-10-15T17:56:24.992Z,18.10
2022-10-15T17:58:51.498Z,18.20
2022-10-15T18:01:27.950Z,18.20
2022-10-15T18:04:04.486Z,18.20
2022-10-15T18:06:30.972Z,18.10
2022-10-15T18:08:57.484Z,18.10
2022-10-15T18:11:23.963Z,18.20
2022-10-15T18:13:50.434Z,18.20
2022-10-15T18:16:17.714Z,18.20
2022-10-15T18:18:44.228Z,18.20
2022-10-15T18:21:10.727Z,18.10
2022-10-15T18:23:37.233Z,18.20
2022-10-15T18:26:03.709Z,18.10
2022-10-15T18:28:30.222Z,18.10
2022-10-15T18:30:56.727Z,18.10
2022-10-15T18:33:23.324Z,18.10
2022-10-15T18:35:49.807Z,18.10
2022-10-15T18:38:16.271Z,18.00
2022-10-15T18:40:42.745Z,18.10
2022-10-15T18:43:09.213Z,18.10
2022-10-15T18:45:35.679Z,18.10
2022-10-15T18:48:02.149Z,18.10
2022-10-15T18:50:28.614Z,18.10
2022-10-15T18:52:55.075Z,18.10
2022-10-15T18:55:21.554Z,18.10
2022-10-15T18:57:48.010Z,18.10
2022-10-15T19:00:14.469Z,18.10
2022-10-15T19:02:40.948Z,18.10
2022-10-15T19:05:07.432Z,18.00
2022-10-15T19:07:33.904Z,18.10
2022-10-15T19:10:00.368Z,18.10
2022-10-15T19:12:27.006Z,18.10
2022-10-15T19:14:53.792Z,18.10
2022-10-15T19:17:20.267Z,18.00
2022-10-15T19:19:46.763Z,18.00
2022-10-15T19:22:13.260Z,18.00
2022-10-15T19:24:39.740Z,18.00
2022-10-15T19:29:36.387Z,18.00
2022-10-15T19:32:02.853Z,18.00
2022-10-15T19:34:29.327Z,18.00
2022-10-15T19:36:55.842Z,18.00
2022-10-15T19:39:22.467Z,18.00
2022-10-15T19:41:49.134Z,18.00
2022-10-15T19:44:15.628Z,18.00
2022-10-15T19:46:48.114Z,18.10
2022-10-15T19:49:14.603Z,18.10
2022-10-15T19:51:41.098Z,18.00
2022-10-15T19:54:07.645Z,18.00
2022-10-15T19:56:34.138Z,18.00
2022-10-15T19:59:00.637Z,18.00
2022-10-15T20:01:27.171Z,18.10
2022-10-15T20:03:53.691Z,18.00
2022-10-15T20:06:20.187Z,18.10
2022-10-15T20:08:46.720Z,18.10
2022-10-15T20:11:13.205Z,18.00
2022-10-15T20:13:39.675Z,18.00
2022-10-15T20:16:06.142Z,18.00
2022-10-15T20:18:32.603Z,18.10
2022-10-15T20:20:59.061Z,18.10
2022-10-15T20:23:28.655Z,18.10
2022-10-15T20:25:55.155Z,18.00
2022-10-15T20:28:28.190Z,18.00
2022-10-15T20:33:21.157Z,18.00
2022-10-15T20:35:47.727Z,18.00
2022-10-15T20:38:14.206Z,18.00
2022-10-15T20:40:40.712Z,18.00
2022-10-15T20:43:07.247Z,18.10
2022-10-15T20:45:33.740Z,18.00
2022-10-15T20:48:00.204Z,18.00
2022-10-15T20:50:26.688Z,18.00
2022-10-15T20:52:53.204Z,18.00
2022-10-15T20:55:19.683Z,18.00
2022-10-15T20:57:46.157Z,18.00
2022-10-15T21:00:12.638Z,18.00
2022-10-15T21:02:39.113Z,18.00
2022-10-15T21:05:05.610Z,18.00
2022-10-15T21:07:32.102Z,18.00
2022-10-15T21:09:58.598Z,18.00
2022-10-15T21:12:25.424Z,18.00
2022-10-15T21:14:52.303Z,18.00
2022-10-15T21:17:26.611Z,18.00
2022-10-15T21:19:53.444Z,18.00
2022-10-15T21:22:19.916Z,18.10
2022-10-15T21:24:46.386Z,18.00
2022-10-15T21:27:13.001Z,18.00
2022-10-15T21:29:39.474Z,18.00
2022-10-15T21:32:05.979Z,18.00
2022-10-15T21:34:32.538Z,18.00
2022-10-15T21:36:59.075Z,18.00
2022-10-15T21:39:27.709Z,18.00
2022-10-15T21:41:54.187Z,18.00
2022-10-15T21:44:20.644Z,18.00
2022-10-15T21:46:47.137Z,18.00
2022-10-15T21:49:13.632Z,18.00
2022-10-15T21:51:40.104Z,18.00
2022-10-15T21:54:06.593Z,18.00
2022-10-15T21:56:33.817Z,18.00
2022-10-15T21:59:02.438Z,18.00
2022-10-15T22:01:28.970Z,18.00
2022-10-15T22:03:55.515Z,18.00
2022-10-15T22:06:22.005Z,18.00
2022-10-15T22:08:48.467Z,17.80
2022-10-15T22:11:15.032Z,18.00
2022-10-15T22:13:41.650Z,17.90
2022-10-15T22:16:08.142Z,17.90
2022-10-15T22:18:34.662Z,17.90
2022-10-15T22:21:01.155Z,17.90
2022-10-15T22:23:27.953Z,18.00
2022-10-15T22:25:54.519Z,17.90
2022-10-15T22:28:21.048Z,18.00
2022-10-15T22:30:47.616Z,17.90
2022-10-15T22:33:14.095Z,17.90
2022-10-15T22:35:40.594Z,18.00
2022-10-15T22:38:07.066Z,18.00
2022-10-15T22:40:33.552Z,17.90
2022-10-15T22:43:00.020Z,17.90
2022-10-15T22:45:26.537Z,17.90
2022-10-15T22:47:53.022Z,17.90
2022-10-15T22:50:19.522Z,17.90
2022-10-15T22:52:45.989Z,17.90
2022-10-15T22:55:12.485Z,17.90
2022-10-15T22:57:38.974Z,17.90
2022-10-15T23:00:05.484Z,17.90
2022-10-15T23:02:31.966Z,17.90
2022-10-15T23:04:58.454Z,17.90
2022-10-15T23:07:24.909Z,17.90
2022-10-15T23:09:51.598Z,17.90
2022-10-15T23:12:18.070Z,17.90
2022-10-15T23:14:44.675Z,17.90
2022-10-15T23:17:11.169Z,17.90
2022-10-15T23:19:37.672Z,17.90
2022-10-15T23:22:04.158Z,17.90
2022-10-15T23:24:30.639Z,17.90
2022-10-15T23:26:57.111Z,17.90
2022-10-15T23:29:25.648Z,17.90
2022-10-15T23:31:52.134Z,17.90
2022-10-15T23:34:18.634Z,17.90
2022-10-15T23:36:45.117Z,17.80
2022-10-15T23:39:11.604Z,17.80
2022-10-15T23:41:38.056Z,17.90
2022-10-15T23:44:04.526Z,17.90
2022-10-15T23:46:31.021Z,17.90
2022-10-15T23:48:57.515Z,17.90
2022-10-15T23:51:24.020Z,17.80
2022-10-15T23:53:50.487Z,17.80
2022-10-15T23:56:16.980Z,17.80
2022-10-15T23:58:43.467Z,17.90
